Time;durP1;ratioP1;P1;durP2;ratioP2;P2;SDS_P1;SDS_P2;PMS_P1;PMS_P2;Temp;Humidity;BMP_temperature;BMP_pressure;BME280_temperature;BME280_humidity;BME280_pressure;Samples;Min_cycle;Max_cycle;Signal;HPM_P1;HPM_P2
2022/03/13 00:00:26;;;;;;;13.33;11.60;;;12.00;57.90;;;;;;5031855;28;21085;-66
2022/03/13 00:02:52;;;;;;;14.90;12.03;;;12.00;58.50;;;;;;5030778;28;20492;-65
2022/03/13 00:05:18;;;;;;;12.17;10.97;;;12.00;58.90;;;;;;5032627;28;20467;-65
2022/03/13 00:07:47;;;;;;;13.43;11.23;;;11.90;58.90;;;;;;5032595;28;20405;-73
2022/03/13 00:10:18;;;;;;;11.40;10.20;;;11.90;59.00;;;;;;5014809;28;20420;-65
2022/03/13 00:12:46;;;;;;;11.60;10.40;;;11.90;58.70;;;;;;5014410;28;20495;-73
2022/03/13 00:15:14;;;;;;;13.30;12.00;;;11.90;58.10;;;;;;5032837;28;20436;-65
2022/03/13 00:17:40;;;;;;;13.70;10.87;;;11.90;57.90;;;;;;5032435;28;20423;-65
2022/03/13 00:20:08;;;;;;;11.30;10.10;;;11.90;57.60;;;;;;5031134;28;21045;-65
2022/03/13 00:22:35;;;;;;;12.90;11.33;;;11.80;56.80;;;;;;5032818;28;20405;-65
2022/03/13 00:25:04;;;;;;;13.37;11.07;;;11.90;56.50;;;;;;5030969;28;20460;-65
2022/03/13 00:27:31;;;;;;;11.80;10.60;;;11.80;56.30;;;;;;5014388;28;20416;-69
2022/03/13 00:29:57;;;;;;;13.60;11.13;;;11.80;56.30;;;;;;5031797;28;20459;-65
2022/03/13 00:32:23;;;;;;;13.37;11.97;;;11.90;56.50;;;;;;5032333;28;20837;-65
2022/03/13 00:34:49;;;;;;;15.27;12.07;;;11.80;57.20;;;;;;5028478;28;21015;-66
2022/03/13 00:37:17;;;;;;;12.73;11.50;;;11.80;57.20;;;;;;4994960;28;20422;-65
2022/03/13 00:39:44;;;;;;;12.00;10.73;;;11.70;55.80;;;;;;5021083;28;20448;-65
2022/03/13 00:42:12;;;;;;;12.17;11.03;;;11.60;55.40;;;;;;5031384;28;20435;-66
2022/03/13 00:44:38;;;;;;;13.23;11.83;;;11.60;55.30;;;;;;5032280;28;20496;-66
2022/03/13 00:47:05;;;;;;;14.30;11.67;;;11.60;57.40;;;;;;5031220;28;20456;-65
2022/03/13 00:49:32;;;;;;;10.63;9.53;;;11.60;57.40;;;;;;5031032;28;20250;-66
2022/03/13 00:51:59;;;;;;;11.80;10.60;;;11.50;55.70;;;;;;5011795;28;20824;-65
2022/03/13 00:54:25;;;;;;;13.07;11.03;;;11.50;56.50;;;;;;5014246;28;20917;-65
2022/03/13 00:56:52;;;;;;;11.60;10.40;;;11.50;57.20;;;;;;5030681;28;20402;-66
2022/03/13 00:59:17;;;;;;;12.60;11.37;;;11.40;56.80;;;;;;5032338;28;20916;-65
2022/03/13 01:01:43;;;;;;;11.57;10.47;;;11.40;57.30;;;;;;5031688;28;20455;-65
2022/03/13 01:04:09;;;;;;;14.80;11.17;;;11.30;57.30;;;;;;5013456;28;20780;-65
2022/03/13 01:06:34;;;;;;;13.00;10.77;;;11.20;57.90;;;;;;5013391;28;20186;-65
2022/03/13 01:09:00;;;;;;;12.60;10.90;;;11.10;57.80;;;;;;5031207;28;20190;-65
2022/03/13 01:11:26;;;;;;;11.50;10.30;;;11.10;57.70;;;;;;5031799;28;20632;-65
2022/03/13 01:13:53;;;;;;;12.63;11.33;;;11.00;57.30;;;;;;5011756;28;20183;-66
2022/03/13 01:16:29;;;;;;;14.50;12.37;;;10.80;55.70;;;;;;5020525;28;20506;-65
2022/03/13 01:18:58;;;;;;;12.40;11.10;;;10.80;56.10;;;;;;5031108;28;20416;-66
2022/03/13 01:21:25;;;;;;;12.83;11.40;;;10.80;56.60;;;;;;5014421;28;20435;-65
2022/03/13 01:24:00;;;;;;;13.00;10.30;;;10.80;57.10;;;;;;5020332;28;20472;-73
2022/03/13 01:26:25;;;;;;;12.43;10.90;;;10.80;57.00;;;;;;5032293;28;20431;-66
2022/03/13 01:28:57;;;;;;;13.70;11.10;;;10.80;56.60;;;;;;5022606;28;20425;-74
2022/03/13 01:31:25;;;;;;;12.10;10.80;;;10.70;56.60;;;;;;5031512;28;20223;-67
2022/03/13 01:33:51;;;;;;;12.20;10.67;;;10.70;54.30;;;;;;5030688;28;22281;-74
2022/03/13 01:36:17;;;;;;;13.50;11.20;;;10.70;54.00;;;;;;5031881;28;20412;-66
2022/03/13 01:38:43;;;;;;;12.17;10.87;;;10.70;53.90;;;;;;5031965;28;20189;-67
2022/03/13 01:41:08;;;;;;;11.50;10.30;;;10.80;53.50;;;;;;5013230;28;20648;-67
2022/03/13 01:43:35;;;;;;;12.73;10.77;;;10.80;52.40;;;;;;5029759;28;20201;-67
2022/03/13 01:46:02;;;;;;;12.90;10.23;;;10.90;52.60;;;;;;5023896;28;20446;-67
2022/03/13 01:48:29;;;;;;;14.47;10.80;;;10.90;53.00;;;;;;5013457;28;20451;-67
2022/03/13 01:50:56;;;;;;;12.97;10.23;;;10.90;52.10;;;;;;5016748;28;20916;-67
2022/03/13 01:53:22;;;;;;;11.50;10.10;;;10.90;52.10;;;;;;5019252;28;20429;-67
2022/03/13 01:55:55;;;;;;;11.90;9.70;;;10.90;52.30;;;;;;5015491;28;20417;-67
2022/03/13 01:58:22;;;;;;;11.27;10.07;;;10.90;52.80;;;;;;5015753;28;20448;-67
2022/03/13 02:00:48;;;;;;;11.87;10.73;;;10.80;52.40;;;;;;5017859;28;20884;-67
2022/03/13 02:03:16;;;;;;;12.00;10.70;;;10.80;52.40;;;;;;5028723;28;21019;-67
2022/03/13 02:05:45;;;;;;;11.90;10.70;;;10.80;52.30;;;;;;5015283;28;20426;-67
2022/03/13 02:08:19;;;;;;;10.17;9.27;;;10.70;52.90;;;;;;5024832;28;20425;-67
2022/03/13 02:10:45;;;;;;;11.07;9.53;;;10.70;53.00;;;;;;5035549;28;20415;-67
2022/03/13 02:13:13;;;;;;;11.50;10.20;;;10.60;53.00;;;;;;5033015;28;20425;-67
2022/03/13 02:15:39;;;;;;;11.80;10.33;;;10.60;52.60;;;;;;5035060;28;20419;-67
2022/03/13 02:18:06;;;;;;;13.10;10.87;;;10.60;53.60;;;;;;5033397;28;20556;-67
2022/03/13 02:20:40;;;;;;;13.03;10.77;;;10.50;53.60;;;;;;5034363;28;20499;-67
2022/03/13 02:23:24;;;;;;;12.20;10.37;;;10.50;52.90;;;;;;5033882;28;20396;-67
2022/03/13 02:26:00;;;;;;;12.60;10.87;;;10.40;52.80;;;;;;5034952;28;20745;-67
2022/03/13 02:28:30;;;;;;;10.97;9.87;;;10.40;53.00;;;;;;5034970;28;20480;-67
2022/03/13 02:31:05;;;;;;;11.07;9.63;;;10.30;52.60;;;;;;5034386;28;20779;-71
2022/03/13 02:33:31;;;;;;;14.87;10.27;;;10.30;52.70;;;;;;5034691;28;20419;-67
2022/03/13 02:36:03;;;;;;;11.67;10.20;;;10.30;53.10;;;;;;5034020;28;20421;-67
2022/03/13 02:38:30;;;;;;;11.37;10.07;;;10.20;52.80;;;;;;5034815;28;20392;-66
2022/03/13 02:40:58;;;;;;;11.50;10.30;;;10.20;53.60;;;;;;5032757;28;20453;-72
2022/03/13 02:43:25;;;;;;;10.87;9.77;;;10.20;52.90;;;;;;5034489;28;21063;-66
2022/03/13 02:45:54;;;;;;;11.23;10.00;;;10.30;52.40;;;;;;5034329;28;20553;-67
2022/03/13 02:48:20;;;;;;;12.23;9.80;;;10.20;52.70;;;;;;5016397;28;20416;-67
2022/03/13 02:50:46;;;;;;;12.60;10.27;;;10.20;52.40;;;;;;5034548;28;20465;-67
2022/03/13 02:53:16;;;;;;;12.73;10.40;;;10.20;51.00;;;;;;5033628;28;20420;-68
2022/03/13 02:55:41;;;;;;;10.60;9.50;;;10.20;51.80;;;;;;4997167;28;20417;-67
2022/03/13 02:58:09;;;;;;;11.77;10.57;;;10.10;52.00;;;;;;5014793;28;20507;-67
2022/03/13 03:00:47;;;;;;;16.77;10.37;;;10.10;51.90;;;;;;5018378;28;20199;-67
2022/03/13 03:03:18;;;;;;;11.13;10.03;;;10.00;51.80;;;;;;5033354;28;20496;-67
2022/03/13 03:05:44;;;;;;;13.23;10.50;;;10.00;52.00;;;;;;5034108;28;20412;-67
2022/03/13 03:08:10;;;;;;;10.87;9.77;;;10.00;53.20;;;;;;5033341;28;20413;-67
2022/03/13 03:10:36;;;;;;;11.87;10.57;;;10.00;54.30;;;;;;5033792;28;20509;-67
2022/03/13 03:13:03;;;;;;;11.27;9.90;;;9.90;54.80;;;;;;5032657;28;20419;-67
2022/03/13 03:15:29;;;;;;;12.17;10.23;;;9.90;55.00;;;;;;5034011;28;20395;-67
2022/03/13 03:17:55;;;;;;;12.77;11.47;;;9.90;55.00;;;;;;5033310;28;20479;-75
2022/03/13 03:20:21;;;;;;;14.90;12.20;;;9.90;55.70;;;;;;5033764;28;20193;-67
2022/03/13 03:22:49;;;;;;;15.97;13.63;;;9.80;56.00;;;;;;5034110;28;20417;-67
2022/03/13 03:25:26;;;;;;;14.60;12.40;;;9.70;56.70;;;;;;5032988;28;20970;-67
2022/03/13 03:27:52;;;;;;;13.93;12.30;;;9.70;56.60;;;;;;5032887;28;20401;-67
2022/03/13 03:30:23;;;;;;;15.53;13.87;;;9.70;56.90;;;;;;5032970;28;20421;-67
2022/03/13 03:32:50;;;;;;;15.70;13.93;;;9.50;57.00;;;;;;5033740;28;20484;-67
2022/03/13 03:35:20;;;;;;;19.30;14.03;;;9.50;57.50;;;;;;5032855;28;20414;-67
2022/03/13 03:37:48;;;;;;;16.23;14.40;;;9.60;57.60;;;;;;5033291;28;20901;-67
2022/03/13 03:40:13;;;;;;;17.10;15.13;;;9.60;57.70;;;;;;5032345;28;20929;-67
2022/03/13 03:42:40;;;;;;;18.00;14.60;;;9.60;57.70;;;;;;5015871;28;20410;-67
2022/03/13 03:45:07;;;;;;;18.67;15.13;;;9.60;57.50;;;;;;5032566;28;20555;-67
2022/03/13 03:47:33;;;;;;;17.17;14.83;;;9.60;57.90;;;;;;5033105;28;20421;-67
2022/03/13 03:49:59;;;;;;;17.73;14.60;;;9.50;58.40;;;;;;5031944;28;20494;-74
2022/03/13 03:52:25;;;;;;;18.17;14.13;;;9.50;57.60;;;;;;5033034;28;20450;-67
2022/03/13 03:54:52;;;;;;;18.00;15.80;;;9.40;57.80;;;;;;5033469;28;20425;-67
2022/03/13 03:57:18;;;;;;;20.83;15.13;;;9.40;58.00;;;;;;5029746;28;20317;-67
2022/03/13 03:59:45;;;;;;;18.27;14.43;;;9.40;58.60;;;;;;5013445;28;20418;-67
2022/03/13 04:02:12;;;;;;;19.60;15.83;;;9.40;58.50;;;;;;5012322;28;20428;-67
2022/03/13 04:04:39;;;;;;;21.03;15.50;;;9.40;59.10;;;;;;5028211;28;20946;-67
2022/03/13 04:07:05;;;;;;;18.03;15.70;;;9.40;58.70;;;;;;5025647;28;20905;-67
2022/03/13 04:09:31;;;;;;;20.67;16.10;;;9.40;58.50;;;;;;5032954;28;20439;-67
2022/03/13 04:11:57;;;;;;;19.73;15.57;;;9.40;58.40;;;;;;5032105;28;20420;-67
2022/03/13 04:14:23;;;;;;;20.80;13.60;;;9.00;57.70;;;;;;5032618;28;20535;-67
2022/03/13 04:16:51;;;;;;;19.33;14.43;;;9.40;57.50;;;;;;5032147;28;20496;-67
2022/03/13 04:19:19;;;;;;;16.97;14.90;;;9.40;56.60;;;;;;5011948;28;20178;-67
2022/03/13 04:21:44;;;;;;;20.50;15.37;;;9.40;57.00;;;;;;5013253;28;20418;-67
2022/03/13 04:24:11;;;;;;;20.10;13.63;;;9.40;58.00;;;;;;5012147;28;20507;-67
2022/03/13 04:26:40;;;;;;;16.10;13.40;;;9.40;57.50;;;;;;5021559;28;20265;-67
2022/03/13 04:29:09;;;;;;;16.07;13.70;;;9.40;56.10;;;;;;5031855;28;20416;-67
2022/03/13 04:31:37;;;;;;;17.53;13.90;;;9.40;56.40;;;;;;5032280;28;20405;-67
2022/03/13 04:34:04;;;;;;;16.03;13.63;;;9.50;56.40;;;;;;5031325;28;20432;-68
2022/03/13 04:36:32;;;;;;;15.50;13.87;;;9.40;56.00;;;;;;5014242;28;20449;-68
2022/03/13 04:38:59;;;;;;;16.60;13.37;;;9.40;56.40;;;;;;5017889;28;20433;-67
2022/03/13 04:41:25;;;;;;;17.10;13.93;;;9.40;57.20;;;;;;5031929;28;20438;-67
2022/03/13 04:43:53;;;;;;;16.00;13.53;;;9.40;56.60;;;;;;5014479;28;20480;-67
2022/03/13 04:46:18;;;;;;;19.23;14.43;;;9.40;56.10;;;;;;5013926;28;20419;-67
2022/03/13 04:48:44;;;;;;;17.10;14.17;;;9.40;55.70;;;;;;5032283;28;20464;-67
2022/03/13 04:51:11;;;;;;;17.13;14.20;;;9.30;54.60;;;;;;5030954;28;20421;-67
2022/03/13 04:53:36;;;;;;;15.87;13.43;;;9.30;54.90;;;;;;5032023;28;20207;-67
2022/03/13 04:56:02;;;;;;;16.93;13.63;;;9.30;54.70;;;;;;5031481;28;20437;-74
2022/03/13 04:58:28;;;;;;;16.77;13.93;;;9.30;54.50;;;;;;5015783;28;20190;-67
2022/03/13 05:00:54;;;;;;;18.50;15.23;;;9.30;54.40;;;;;;5032082;28;20492;-67
2022/03/13 05:03:20;;;;;;;17.10;14.43;;;9.30;54.20;;;;;;5031075;28;21045;-67
2022/03/13 05:05:46;;;;;;;21.03;17.30;;;9.40;53.80;;;;;;5032200;28;20407;-67
2022/03/13 05:08:15;;;;;;;16.80;14.33;;;9.30;54.30;;;;;;5013654;28;20183;-67
2022/03/13 05:10:43;;;;;;;19.80;15.63;;;9.30;53.10;;;;;;5031404;28;20831;-66
2022/03/13 05:13:14;;;;;;;18.40;14.20;;;9.30;52.20;;;;;;5030936;28;20422;-67
2022/03/13 05:15:42;;;;;;;16.00;12.63;;;9.40;53.40;;;;;;5029779;28;20440;-66
2022/03/13 05:18:08;;;;;;;13.63;12.23;;;9.40;52.20;;;;;;5020249;28;20421;-67
2022/03/13 05:20:35;;;;;;;10.70;9.60;;;9.50;51.50;;;;;;5032288;28;20414;-67
2022/03/13 05:23:05;;;;;;;10.63;9.53;;;9.20;47.10;;;;;;5032143;28;20177;-67
2022/03/13 05:25:35;;;;;;;14.70;9.30;;;9.30;46.00;;;;;;5017418;28;20432;-67
2022/03/13 05:28:02;;;;;;;11.33;9.37;;;9.40;46.00;;;;;;5019370;28;20425;-67
2022/03/13 05:30:28;;;;;;;11.43;10.20;;;9.50;45.70;;;;;;5015634;28;20442;-67
2022/03/13 05:32:57;;;;;;;10.93;9.80;;;9.60;44.90;;;;;;5016152;28;20405;-67
2022/03/13 05:35:24;;;;;;;9.93;8.87;;;9.70;45.10;;;;;;5032221;28;20426;-67
2022/03/13 05:37:50;;;;;;;15.80;11.70;;;9.80;45.30;;;;;;5018917;28;20422;-67
2022/03/13 05:40:17;;;;;;;11.03;9.53;;;9.90;45.90;;;;;;5015541;28;20494;-67
2022/03/13 05:42:45;;;;;;;10.77;9.67;;;9.90;47.20;;;;;;4998351;28;20442;-67
2022/03/13 05:45:13;;;;;;;13.27;10.37;;;9.90;49.00;;;;;;5015042;28;20472;-67
2022/03/13 05:47:46;;;;;;;11.33;9.43;;;9.90;48.40;;;;;;5032904;28;20920;-67
2022/03/13 05:50:13;;;;;;;11.20;9.27;;;9.90;47.50;;;;;;5034852;28;20455;-67
2022/03/13 05:52:41;;;;;;;11.00;9.87;;;9.80;47.40;;;;;;5017730;28;20835;-67
2022/03/13 05:55:07;;;;;;;12.40;10.40;;;9.80;45.20;;;;;;5035261;28;20491;-74
2022/03/13 05:57:33;;;;;;;13.93;9.63;;;9.70;45.10;;;;;;5035700;28;20410;-67
2022/03/13 05:59:58;;;;;;;10.27;9.23;;;9.70;44.70;;;;;;5034260;28;20513;-67
2022/03/13 06:02:24;;;;;;;10.40;9.30;;;9.60;44.60;;;;;;5024507;28;20215;-66
2022/03/13 06:04:52;;;;;;;10.77;9.67;;;9.60;44.40;;;;;;5015630;28;20726;-66
2022/03/13 06:07:19;;;;;;;10.07;9.00;;;9.50;43.60;;;;;;5015069;28;20232;-66
2022/03/13 06:09:44;;;;;;;11.23;9.60;;;9.30;43.80;;;;;;5016674;28;20496;-66
2022/03/13 06:12:10;;;;;;;11.97;9.83;;;9.40;44.40;;;;;;5034295;28;20506;-66
2022/03/13 06:14:36;;;;;;;11.70;10.20;;;9.30;43.80;;;;;;5033746;28;20188;-65
2022/03/13 06:17:02;;;;;;;12.10;10.33;;;9.50;44.10;;;;;;5035130;28;20421;-64
2022/03/13 06:19:28;;;;;;;10.80;8.67;;;9.60;43.90;;;;;;5021784;28;20273;-64
2022/03/13 06:21:55;;;;;;;11.10;9.50;;;9.70;44.00;;;;;;5015654;28;20771;-65
2022/03/13 06:24:21;;;;;;;11.47;10.27;;;9.80;44.20;;;;;;5011065;28;20554;-65
2022/03/13 06:26:46;;;;;;;11.90;10.00;;;9.90;43.90;;;;;;5030588;28;20429;-65
2022/03/13 06:29:13;;;;;;;10.97;9.50;;;9.90;44.00;;;;;;5025844;28;20784;-66
2022/03/13 06:31:40;;;;;;;9.60;8.70;;;10.10;42.80;;;;;;5053985;28;20522;-65
2022/03/13 06:34:07;;;;;;;10.70;9.20;;;10.20;43.40;;;;;;5015797;28;20485;-73
2022/03/13 06:36:34;;;;;;;10.20;8.70;;;10.10;42.40;;;;;;5021125;28;20510;-66
2022/03/13 06:39:00;;;;;;;11.20;10.00;;;10.20;42.40;;;;;;5034716;28;20419;-66
2022/03/13 06:41:26;;;;;;;10.37;9.37;;;10.30;43.20;;;;;;5033978;28;20548;-66
2022/03/13 06:43:53;;;;;;;9.97;9.00;;;10.30;42.50;;;;;;5034536;28;20890;-65
2022/03/13 06:46:18;;;;;;;10.77;9.50;;;10.20;41.60;;;;;;5026608;28;21025;-66
2022/03/13 06:48:44;;;;;;;11.13;8.90;;;10.10;41.70;;;;;;4997168;28;20537;-66
2022/03/13 06:51:10;;;;;;;11.33;10.03;;;9.90;42.70;;;;;;5034039;28;20409;-73
2022/03/13 06:53:37;;;;;;;10.53;9.30;;;9.70;42.60;;;;;;5034015;28;20511;-66
2022/03/13 06:56:03;;;;;;;8.73;7.93;;;9.80;43.50;;;;;;5025709;28;20184;-65
2022/03/13 06:58:29;;;;;;;10.90;9.80;;;9.80;43.80;;;;;;5016026;28;20853;-65
2022/03/13 07:00:54;;;;;;;11.20;9.80;;;9.80;43.50;;;;;;5028942;28;20514;-65
2022/03/13 07:03:20;;;;;;;10.63;9.37;;;9.90;43.50;;;;;;5031652;28;20532;-65
2022/03/13 07:05:46;;;;;;;10.63;8.70;;;9.80;43.20;;;;;;5015318;28;20188;-65
2022/03/13 07:08:13;;;;;;;9.73;8.60;;;9.80;43.90;;;;;;5031795;28;20175;-71
2022/03/13 07:10:39;;;;;;;10.40;9.10;;;9.90;43.60;;;;;;5032028;28;20427;-66
2022/03/13 07:13:05;;;;;;;11.63;9.60;;;9.90;43.90;;;;;;5046366;28;20417;-65
2022/03/13 07:15:31;;;;;;;11.83;9.17;;;10.00;43.00;;;;;;5052905;28;20416;-65
2022/03/13 07:17:58;;;;;;;9.93;8.87;;;9.90;43.30;;;;;;5022121;28;20511;-65
2022/03/13 07:20:24;;;;;;;10.60;9.60;;;10.10;43.10;;;;;;5013694;28;20416;-65
2022/03/13 07:22:50;;;;;;;10.27;9.17;;;10.30;42.60;;;;;;5014116;28;20431;-65
2022/03/13 07:25:16;;;;;;;11.40;9.50;;;10.40;42.90;;;;;;4995823;28;20853;-66
2022/03/13 07:27:43;;;;;;;9.90;8.83;;;10.60;43.30;;;;;;5001590;28;20178;-66
2022/03/13 07:30:12;;;;;;;11.20;9.77;;;10.80;44.30;;;;;;5032967;28;20412;-66
2022/03/13 07:32:40;;;;;;;10.97;9.27;;;10.90;43.40;;;;;;5013414;28;20421;-65
2022/03/13 07:35:09;;;;;;;11.17;8.77;;;11.10;42.50;;;;;;5014201;28;20425;-66
2022/03/13 07:37:35;;;;;;;10.40;9.30;;;11.30;42.90;;;;;;5015441;28;20430;-66
2022/03/13 07:40:02;;;;;;;10.80;9.70;;;11.40;42.70;;;;;;5031262;28;20833;-66
2022/03/13 07:42:28;;;;;;;12.10;10.80;;;11.60;43.10;;;;;;5027006;28;20520;-66
2022/03/13 07:44:53;;;;;;;11.20;10.10;;;11.70;44.00;;;;;;5015190;28;20471;-66
2022/03/13 07:47:19;;;;;;;11.40;10.30;;;11.80;44.80;;;;;;5023463;28;20430;-65
2022/03/13 07:49:45;;;;;;;10.50;9.43;;;11.90;43.50;;;;;;5024895;28;20289;-66
2022/03/13 07:52:11;;;;;;;15.00;10.20;;;12.00;43.00;;;;;;5014712;28;20190;-73
2022/03/13 07:54:37;;;;;;;12.37;10.80;;;12.10;42.10;;;;;;5032388;28;20551;-65
2022/03/13 07:57:03;;;;;;;12.27;10.10;;;12.20;42.50;;;;;;5032692;28;20421;-66
2022/03/13 07:59:28;;;;;;;11.30;10.20;;;12.30;42.20;;;;;;5032267;28;20211;-65
2022/03/13 08:01:54;;;;;;;11.53;10.03;;;12.40;42.50;;;;;;5032904;28;20406;-65
2022/03/13 08:04:20;;;;;;;12.67;11.37;;;12.40;42.00;;;;;;5031671;28;20280;-65
2022/03/13 08:06:46;;;;;;;11.90;10.07;;;12.10;40.90;;;;;;5019140;28;20538;-65
2022/03/13 08:09:12;;;;;;;11.50;10.33;;;12.10;41.60;;;;;;5016941;28;20420;-71
2022/03/13 08:11:38;;;;;;;11.00;9.90;;;12.20;41.60;;;;;;5032152;28;20427;-65
2022/03/13 08:14:07;;;;;;;12.90;11.60;;;12.40;41.50;;;;;;5031090;28;20534;-66
2022/03/13 08:16:32;;;;;;;13.67;11.50;;;12.50;41.00;;;;;;5014879;28;20409;-65
2022/03/13 08:18:58;;;;;;;12.73;11.43;;;12.50;40.60;;;;;;5028942;28;20487;-65
2022/03/13 08:21:24;;;;;;;12.13;10.83;;;12.50;41.00;;;;;;5031654;28;20188;-65
2022/03/13 08:23:49;;;;;;;42.87;30.63;;;12.50;41.30;;;;;;5013693;28;20611;-69
2022/03/13 08:26:15;;;;;;;42.33;30.23;;;13.00;69.90;;;;;;5029257;28;20428;-77
2022/03/13 08:28:42;;;;;;;24.67;18.93;;;13.80;70.00;;;;;;5015138;28;20182;-69
2022/03/13 08:31:08;;;;;;;19.67;16.40;;;14.60;61.50;;;;;;5026118;28;20423;-69
2022/03/13 08:33:34;;;;;;;15.70;14.10;;;15.10;55.10;;;;;;5031629;28;20821;-69
2022/03/13 08:36:00;;;;;;;14.73;13.23;;;15.60;52.20;;;;;;5014810;28;20821;-69
2022/03/13 08:38:27;;;;;;;15.63;14.03;;;16.00;49.90;;;;;;5012919;28;20420;-69
2022/03/13 08:40:53;;;;;;;14.27;12.87;;;16.20;47.70;;;;;;5014669;28;20416;-69
2022/03/13 08:43:19;;;;;;;13.40;12.17;;;16.50;45.70;;;;;;5030839;28;20431;-74
2022/03/13 08:45:44;;;;;;;13.47;10.67;;;16.60;45.50;;;;;;5006174;28;20178;-69
2022/03/13 08:48:13;;;;;;;14.83;13.33;;;16.80;44.60;;;;;;5012641;28;20327;-69
2022/03/13 08:50:39;;;;;;;12.47;11.27;;;16.90;44.20;;;;;;5019357;28;20462;-69
2022/03/13 08:53:05;;;;;;;14.90;11.00;;;16.90;38.70;;;;;;5032633;28;20417;-68
2022/03/13 08:55:31;;;;;;;13.10;11.70;;;16.60;38.20;;;;;;5029847;28;20425;-69
2022/03/13 08:57:57;;;;;;;120.40;82.40;;;16.20;37.60;;;;;;5031086;28;20559;-68
2022/03/13 09:00:24;;;;;;;37.57;29.70;;;16.00;38.70;;;;;;5031260;28;20184;-69
2022/03/13 09:02:50;;;;;;;15.10;13.60;;;15.70;38.80;;;;;;5014444;28;20989;-68
2022/03/13 09:05:17;;;;;;;14.50;12.97;;;15.30;38.80;;;;;;5023797;28;20445;-79
2022/03/13 09:07:42;;;;;;;15.90;13.20;;;15.30;39.90;;;;;;5011970;28;20415;-68
2022/03/13 09:10:09;;;;;;;14.03;12.60;;;15.20;40.80;;;;;;5024869;28;20779;-68
2022/03/13 09:12:35;;;;;;;14.23;12.73;;;15.00;40.00;;;;;;5028989;28;20192;-68
2022/03/13 09:15:02;;;;;;;14.40;11.80;;;15.00;42.60;;;;;;5028381;28;20497;-73
2022/03/13 09:17:28;;;;;;;13.33;11.90;;;15.10;41.50;;;;;;5003410;28;20438;-69
2022/03/13 09:19:55;;;;;;;16.20;12.97;;;15.00;41.40;;;;;;5030956;28;20422;-69
2022/03/13 09:22:28;;;;;;;13.27;11.30;;;15.10;41.40;;;;;;5031166;28;20223;-79
2022/03/13 09:24:57;;;;;;;14.20;12.27;;;15.30;43.20;;;;;;5031551;28;20943;-68
2022/03/13 09:27:24;;;;;;;14.07;12.57;;;15.30;42.80;;;;;;5013016;28;20419;-71
2022/03/13 09:29:50;;;;;;;14.10;12.70;;;15.40;42.90;;;;;;5014049;28;20458;-69
2022/03/13 09:32:16;;;;;;;13.60;12.30;;;15.40;42.40;;;;;;5014216;28;20452;-68
2022/03/13 09:34:41;;;;;;;14.10;12.70;;;15.50;42.90;;;;;;5030706;28;20183;-68
2022/03/13 09:37:07;;;;;;;13.60;12.30;;;15.40;42.90;;;;;;5020422;28;20437;-69
2022/03/13 09:39:34;;;;;;;13.83;12.20;;;15.50;43.30;;;;;;5023509;28;20215;-69
2022/03/13 09:42:00;;;;;;;14.33;12.80;;;15.50;42.50;;;;;;5031559;28;20187;-68
2022/03/13 09:44:26;;;;;;;16.10;14.40;;;15.60;42.80;;;;;;5030895;28;20527;-69
2022/03/13 09:46:51;;;;;;;14.27;12.40;;;15.60;42.70;;;;;;5030029;28;20189;-68
2022/03/13 09:49:20;;;;;;;14.50;12.87;;;15.80;43.70;;;;;;5012261;28;20806;-69
2022/03/13 09:51:47;;;;;;;15.60;12.90;;;15.90;43.00;;;;;;5031498;28;20243;-68
2022/03/13 09:54:13;;;;;;;411.30;260.27;;;16.10;43.50;;;;;;5013955;28;20482;-68
2022/03/13 09:56:39;;;;;;;43.10;35.45;;;16.20;43.00;;;;;;5021824;28;20422;-68
2022/03/13 09:59:04;;;;;;;16.00;14.43;;;16.40;44.50;;;;;;5018345;28;20175;-72
2022/03/13 10:01:30;;;;;;;13.97;12.60;;;16.70;43.80;;;;;;5012198;28;20178;-68
2022/03/13 10:03:56;;;;;;;15.47;13.70;;;17.00;44.40;;;;;;5012041;28;20286;-69
2022/03/13 10:06:22;;;;;;;15.23;13.60;;;17.30;44.00;;;;;;5028799;28;20179;-82
2022/03/13 10:08:48;;;;;;;14.83;13.00;;;17.40;43.50;;;;;;5030658;28;20456;-69
2022/03/13 10:11:14;;;;;;;16.53;14.83;;;17.50;43.80;;;;;;5025581;28;20627;-69
2022/03/13 10:13:45;;;;;;;15.13;13.37;;;17.60;43.40;;;;;;5022247;28;20530;-66
2022/03/13 10:16:22;;;;;;;15.70;14.10;;;17.70;43.70;;;;;;5016840;28;20820;-66
2022/03/13 10:18:48;;;;;;;14.77;13.20;;;17.80;44.40;;;;;;5027888;28;20425;-66
2022/03/13 10:21:19;;;;;;;14.57;13.07;;;17.80;43.40;;;;;;5032842;28;20814;-66
2022/03/13 10:23:48;;;;;;;14.70;13.30;;;17.80;43.40;;;;;;5033968;28;20452;-66
2022/03/13 10:26:16;;;;;;;150.27;84.63;;;18.00;43.20;;;;;;5017225;28;20416;-65
2022/03/13 10:28:42;;;;;;;81.20;60.17;;;18.30;44.40;;;;;;5034045;28;20435;-66
2022/03/13 10:31:13;;;;;;;34.13;28.63;;;18.60;44.10;;;;;;5034473;28;20475;-67
2022/03/13 10:33:44;;;;;;;14.93;13.53;;;19.00;44.60;;;;;;5015961;28;20413;-67
2022/03/13 10:36:19;;;;;;;15.40;13.90;;;19.20;43.40;;;;;;4997373;28;20780;-67
2022/03/13 10:38:46;;;;;;;16.53;13.33;;;19.50;43.10;;;;;;5014477;28;20409;-67
2022/03/13 10:41:12;;;;;;;15.37;13.80;;;19.60;41.90;;;;;;5014898;28;20422;-67
2022/03/13 10:43:49;;;;;;;16.13;14.40;;;19.30;41.60;;;;;;5013768;28;21001;-66
2022/03/13 10:46:26;;;;;;;15.63;14.13;;;19.40;42.60;;;;;;5014652;28;20460;-67
2022/03/13 10:48:52;;;;;;;15.97;14.47;;;19.60;42.30;;;;;;5016700;28;20460;-66
2022/03/13 10:51:31;;;;;;;15.50;14.00;;;19.70;42.80;;;;;;5034656;28;20432;-66
2022/03/13 10:53:56;;;;;;;15.40;13.90;;;19.80;42.50;;;;;;5010120;28;20410;-66
2022/03/13 10:56:22;;;;;;;38.87;34.67;;;19.70;42.00;;;;;;5014586;28;20778;-65
2022/03/13 10:58:48;;;;;;;81.80;54.47;;;19.70;42.70;;;;;;5020163;28;20175;-66
2022/03/13 11:01:16;;;;;;;26.98;24.05;;;19.80;43.80;;;;;;5013591;28;20906;-66
2022/03/13 11:03:51;;;;;;;15.87;14.27;;;20.10;42.90;;;;;;5013612;28;20739;-66
2022/03/13 11:06:17;;;;;;;15.77;14.37;;;20.10;42.70;;;;;;5019171;28;20468;-66
2022/03/13 11:08:44;;;;;;;15.80;14.30;;;20.00;41.50;;;;;;5030251;28;20844;-66
2022/03/13 11:11:10;;;;;;;14.47;13.10;;;20.00;41.90;;;;;;5036342;28;20787;-66
2022/03/13 11:13:39;;;;;;;88.20;58.53;;;20.00;41.70;;;;;;5033141;28;20775;-67
2022/03/13 11:16:09;;;;;;;39.30;35.20;;;20.00;42.00;;;;;;5033140;28;20775;-66
2022/03/13 11:18:37;;;;;;;14.95;13.45;;;19.80;41.80;;;;;;5006812;28;20425;-66
2022/03/13 11:21:08;;;;;;;14.23;12.77;;;20.10;41.60;;;;;;5027295;28;20666;-66
2022/03/13 11:23:37;;;;;;;14.33;12.83;;;20.10;41.10;;;;;;5009600;28;20452;-66
2022/03/13 11:26:07;;;;;;;13.90;12.50;;;20.40;41.80;;;;;;5033756;28;20875;-66
2022/03/13 11:28:34;;;;;;;14.07;12.57;;;20.60;41.00;;;;;;5032340;28;20413;-66
2022/03/13 11:30:59;;;;;;;14.90;13.50;;;20.70;40.90;;;;;;5029954;28;20421;-66
2022/03/13 11:33:44;;;;;;;13.53;12.33;;;20.70;41.70;;;;;;5028214;28;20419;-66
2022/03/13 11:36:30;;;;;;;13.90;12.60;;;20.70;43.40;;;;;;5013719;28;20268;-66
2022/03/13 11:38:56;;;;;;;13.13;11.93;;;20.70;42.80;;;;;;5031185;28;20520;-66
2022/03/13 11:41:35;;;;;;;12.93;11.80;;;20.90;42.10;;;;;;5029976;28;20420;-66
2022/03/13 11:44:23;;;;;;;15.17;13.77;;;21.20;43.40;;;;;;5014870;28;20453;-66
2022/03/13 11:46:53;;;;;;;13.37;12.17;;;21.20;41.50;;;;;;5021866;28;20480;-66
2022/03/13 11:49:32;;;;;;;12.90;11.70;;;21.10;42.20;;;;;;5032605;28;20449;-66
2022/03/13 11:52:13;;;;;;;12.63;11.40;;;21.00;42.30;;;;;;5032109;28;20508;-69
2022/03/13 11:54:53;;;;;;;12.23;11.17;;;21.30;42.20;;;;;;5028356;28;20432;-66
2022/03/13 11:57:27;;;;;;;16.40;14.80;;;21.50;43.30;;;;;;5033969;28;20413;-66
2022/03/13 12:00:14;;;;;;;17.23;15.63;;;21.50;41.30;;;;;;5008116;28;20430;-66
2022/03/13 12:02:42;;;;;;;22.10;19.83;;;21.50;41.60;;;;;;5024217;28;20433;-67
2022/03/13 12:05:29;;;;;;;13.23;12.07;;;21.50;41.80;;;;;;5002252;28;20439;-66
2022/03/13 12:07:57;;;;;;;11.87;10.87;;;21.60;41.80;;;;;;5029039;28;20271;-66
2022/03/13 12:10:41;;;;;;;12.47;11.37;;;20.90;42.00;;;;;;5031413;28;20520;-66
2022/03/13 12:13:12;;;;;;;12.70;11.50;;;20.80;43.50;;;;;;5033431;28;20398;-66
2022/03/13 12:15:41;;;;;;;12.27;11.27;;;20.60;42.80;;;;;;5012623;28;20417;-67
2022/03/13 12:18:23;;;;;;;11.40;10.30;;;20.50;43.60;;;;;;5031366;28;20488;-66
2022/03/13 12:20:50;;;;;;;12.53;11.33;;;20.10;43.60;;;;;;5031931;28;20421;-66
2022/03/13 12:23:26;;;;;;;11.10;10.20;;;20.10;43.90;;;;;;5023298;28;20426;-69
2022/03/13 12:25:54;;;;;;;11.50;10.50;;;20.30;45.90;;;;;;5019705;28;21036;-66
2022/03/13 12:28:40;;;;;;;11.67;10.60;;;20.50;44.80;;;;;;5037522;28;20412;-66
2022/03/13 12:31:06;;;;;;;10.13;9.23;;;20.20;44.80;;;;;;5036311;28;20423;-66
2022/03/13 12:33:33;;;;;;;10.53;9.63;;;20.40;45.50;;;;;;5023794;28;20425;-72
2022/03/13 12:36:02;;;;;;;10.47;9.53;;;20.60;45.10;;;;;;5014393;28;20687;-66